createdAt,value
2023-04-03T10:35:57.077Z,1.30
2023-04-03T10:37:08.387Z,0.90
2023-04-03T10:39:29.436Z,0.93
2023-04-03T10:40:40.181Z,1.23
2023-04-03T10:42:00.911Z,1.63
2023-04-03T10:43:22.464Z,1.77
2023-04-03T10:44:37.393Z,1.30
2023-04-03T10:45:54.570Z,1.40
2023-04-03T10:47:03.375Z,0.95
2023-04-03T10:48:12.390Z,1.20
2023-04-03T10:49:26.482Z,1.05
2023-04-03T10:50:39.306Z,1.00
2023-04-03T10:51:45.162Z,1.20
2023-04-03T10:52:52.058Z,1.00
2023-04-03T10:54:01.794Z,1.42
2023-04-03T10:55:25.180Z,4.03
2023-04-03T10:56:33.223Z,1.27
2023-04-03T10:57:35.786Z,0.90
2023-04-03T10:58:41.668Z,1.08
2023-04-03T10:59:48.583Z,1.23
2023-04-03T11:00:54.567Z,1.33
2023-04-03T11:02:00.797Z,1.10
2023-04-03T11:03:10.216Z,0.95
2023-04-03T11:04:14.030Z,1.27
2023-04-03T11:05:26.936Z,1.20
2023-04-03T11:06:37.804Z,1.13
2023-04-03T11:07:43.876Z,1.50
2023-04-03T11:08:49.965Z,1.38
2023-04-03T11:10:00.262Z,1.33
2023-04-03T11:11:07.161Z,1.05
2023-04-03T11:12:16.248Z,1.20
2023-04-03T11:13:24.061Z,1.00
2023-04-03T11:14:28.965Z,1.27
2023-04-03T11:15:34.323Z,1.30
2023-04-03T11:16:50.933Z,1.65
2023-04-03T11:18:01.330Z,1.30
2023-04-03T11:19:11.581Z,1.35
2023-04-03T11:20:18.933Z,1.10
2023-04-03T11:21:25.598Z,1.00
2023-04-03T11:22:31.607Z,1.10
2023-04-03T11:23:49.061Z,1.33
2023-04-03T11:25:03.465Z,1.73
2023-04-03T11:26:12.041Z,1.45
2023-04-03T11:27:23.815Z,1.00
2023-04-03T11:28:26.187Z,1.20
2023-04-03T11:29:35.776Z,1.20
2023-04-03T11:30:44.542Z,1.20
2023-04-03T11:32:06.740Z,1.33
2023-04-03T11:33:35.098Z,0.80
2023-04-03T11:34:42.694Z,1.20
2023-04-03T11:35:47.171Z,1.38
2023-04-03T11:36:52.905Z,1.10
2023-04-03T11:37:56.442Z,1.60
2023-04-03T11:39:01.675Z,1.50
2023-04-03T11:40:10.228Z,1.20
2023-04-03T11:41:13.943Z,1.10
2023-04-03T11:42:19.043Z,1.48
2023-04-03T11:43:27.116Z,1.40
2023-04-03T11:44:39.848Z,1.40
2023-04-03T11:45:54.032Z,1.23
2023-04-03T11:46:58.221Z,1.38
2023-04-03T11:48:12.976Z,1.20
2023-04-03T11:49:51.723Z,1.67
2023-04-03T11:50:53.966Z,1.10
2023-04-03T11:51:56.229Z,1.05
2023-04-03T11:53:03.393Z,1.15
2023-04-03T11:54:44.299Z,1.00
2023-04-03T11:55:56.861Z,1.20
2023-04-03T11:56:59.010Z,1.13
2023-04-03T11:58:12.925Z,1.10
2023-04-03T11:59:25.665Z,1.20
2023-04-03T12:00:53.832Z,0.93
2023-04-03T12:01:57.492Z,1.13
2023-04-03T12:03:00.580Z,0.98
2023-04-03T12:04:15.042Z,1.15
2023-04-03T12:05:29.177Z,1.00
2023-04-03T12:06:55.924Z,1.13
2023-04-03T12:08:17.140Z,0.98
2023-04-03T12:09:33.235Z,0.95
2023-04-03T12:10:36.024Z,1.25
2023-04-03T12:11:39.749Z,0.80
2023-04-03T12:12:42.200Z,1.13
2023-04-03T12:14:05.995Z,1.20
2023-04-03T12:15:42.607Z,1.08
2023-04-03T12:16:48.326Z,1.08
2023-04-03T12:17:50.920Z,1.58
2023-04-03T12:19:04.566Z,1.63
2023-04-03T12:20:40.035Z,1.98
2023-04-03T12:22:16.872Z,1.77
2023-04-03T12:23:31.854Z,1.30
2023-04-03T12:24:34.891Z,0.98
2023-04-03T12:25:50.911Z,1.30
2023-04-03T12:27:05.781Z,1.33
2023-04-03T12:28:11.651Z,1.90
2023-04-03T12:29:19.499Z,1.45
2023-04-03T12:30:27.495Z,1.40
2023-04-03T12:31:43.566Z,1.65
2023-04-03T12:33:16.207Z,1.17
2023-04-03T12:34:40.219Z,1.02
2023-04-03T12:35:50.777Z,1.00
2023-04-03T12:37:03.020Z,1.23
2023-04-03T12:38:50.171Z,0.90
2023-04-03T12:40:03.218Z,1.10
2023-04-03T12:41:24.841Z,1.23
2023-04-03T12:42:52.513Z,1.70
2023-04-03T12:44:42.713Z,1.20
2023-04-03T12:45:49.684Z,1.90
2023-04-03T12:46:53.680Z,1.20
2023-04-03T12:47:57.342Z,0.93
2023-04-03T12:49:00.632Z,1.10
2023-04-03T12:50:05.118Z,1.30
2023-04-03T12:51:08.112Z,0.88
2023-04-03T12:52:22.870Z,1.08
2023-04-03T12:53:27.593Z,1.50
2023-04-03T12:54:36.121Z,1.08
2023-04-03T12:55:38.518Z,0.85
2023-04-03T12:56:40.942Z,1.30
2023-04-03T12:57:44.693Z,1.20
2023-04-03T12:58:46.906Z,1.05
2023-04-03T12:59:50.120Z,0.77
2023-04-03T13:01:04.318Z,0.68
2023-04-03T13:02:18.792Z,1.00
2023-04-03T13:03:25.446Z,0.80
2023-04-03T13:04:29.142Z,1.55
2023-04-03T13:05:36.523Z,1.35
2023-04-03T13:06:41.466Z,1.20
2023-04-03T13:07:44.633Z,0.90
2023-04-03T13:08:51.295Z,1.02
2023-04-03T13:10:02.163Z,0.82
2023-04-03T13:11:09.871Z,1.30
2023-04-03T13:12:14.184Z,1.25
2023-04-03T13:13:17.876Z,1.02
2023-04-03T13:14:22.381Z,1.10
2023-04-03T13:15:26.847Z,1.10
2023-04-03T13:16:29.351Z,0.60
2023-04-03T13:17:33.120Z,1.08
2023-04-03T13:18:37.399Z,1.50
2023-04-03T13:19:40.592Z,1.60
2023-04-03T13:20:42.786Z,3.80
2023-04-03T13:21:46.472Z,1.33
2023-04-03T13:22:53.693Z,1.10
2023-04-03T13:24:14.167Z,0.85
2023-04-03T13:25:20.456Z,1.40
2023-04-03T13:26:25.212Z,1.20
2023-04-03T13:27:27.914Z,1.27
2023-04-03T13:28:32.854Z,1.10
2023-04-03T13:29:37.564Z,0.82
2023-04-03T13:30:41.477Z,1.00
2023-04-03T13:31:43.752Z,1.20
2023-04-03T13:32:46.141Z,0.80
2023-04-03T13:33:57.129Z,1.10
2023-04-03T13:35:08.189Z,0.90
2023-04-03T13:36:20.332Z,1.10
2023-04-03T13:37:23.858Z,1.05
2023-04-03T13:38:27.837Z,1.45
2023-04-03T13:39:31.958Z,1.05
2023-04-03T13:40:45.136Z,1.15
2023-04-03T13:41:52.210Z,1.10
2023-04-03T13:43:02.929Z,1.15
2023-04-03T13:44:31.248Z,1.13
2023-04-03T13:45:34.918Z,1.27
2023-04-03T13:46:37.529Z,1.30
2023-04-03T13:47:42.454Z,1.13
2023-04-03T13:48:46.943Z,1.08
2023-04-03T13:50:02.039Z,1.38
2023-04-03T13:51:06.750Z,1.10
2023-04-03T13:52:29.717Z,1.50
2023-04-03T13:53:35.296Z,1.30
2023-04-03T13:54:39.802Z,1.45
2023-04-03T13:55:58.534Z,1.10
2023-04-03T13:57:02.357Z,1.23
2023-04-03T13:58:23.016Z,1.40
2023-04-03T13:59:31.387Z,1.35
2023-04-03T14:00:38.670Z,1.75
2023-04-03T14:01:46.615Z,1.42
2023-04-03T14:02:49.927Z,1.20
2023-04-03T14:03:57.138Z,1.17
2023-04-03T14:05:02.575Z,1.30
2023-04-03T14:06:08.131Z,1.40
2023-04-03T14:07:11.034Z,1.42
2023-04-03T14:08:13.177Z,1.10
2023-04-03T14:09:16.558Z,1.42
2023-04-03T14:10:18.925Z,1.60
2023-04-03T14:11:24.758Z,1.30
2023-04-03T14:12:32.160Z,1.75
2023-04-03T14:13:34.729Z,1.23
2023-04-03T14:14:39.548Z,1.33
2023-04-03T14:15:42.263Z,1.27
2023-04-03T14:16:46.478Z,6.82
2023-04-03T14:17:48.818Z,1.38
2023-04-03T14:18:53.210Z,1.30
2023-04-03T14:19:57.430Z,1.48
2023-04-03T14:20:59.668Z,1.30
2023-04-03T14:22:12.455Z,1.38
2023-04-03T14:23:14.633Z,1.63
2023-04-03T14:24:18.026Z,1.60
2023-04-03T14:25:21.341Z,1.23
2023-04-03T14:26:27.571Z,1.42
2023-04-03T14:27:34.212Z,1.20
2023-04-03T14:28:36.656Z,1.50
2023-04-03T14:29:41.545Z,1.50
2023-04-03T14:30:43.645Z,1.63
2023-04-03T14:31:48.023Z,1.30
2023-04-03T14:32:50.683Z,1.35
2023-04-03T14:33:53.249Z,1.95
2023-04-03T14:34:56.346Z,1.10
2023-04-03T14:35:58.629Z,1.35
2023-04-03T14:37:00.935Z,1.45
2023-04-03T14:38:03.145Z,1.50
2023-04-03T14:39:05.954Z,1.20
2023-04-03T14:40:14.410Z,1.30
2023-04-03T14:41:19.741Z,1.13
2023-04-03T14:42:24.521Z,1.75
2023-04-03T14:43:27.694Z,1.63
2023-04-03T14:44:29.825Z,1.23
2023-04-03T14:45:33.467Z,2.10
2023-04-03T14:46:54.417Z,1.95
2023-04-03T14:47:59.995Z,1.55
2023-04-03T14:49:02.443Z,1.85
2023-04-03T14:50:06.215Z,1.40
2023-04-03T14:51:09.728Z,1.40
2023-04-03T14:52:20.943Z,1.70
2023-04-03T14:54:40.902Z,1.48
2023-04-03T14:55:47.043Z,1.58
2023-04-03T14:56:49.350Z,1.40
2023-04-03T14:57:51.717Z,1.58
2023-04-03T14:58:57.429Z,1.80
2023-04-03T15:00:00.271Z,1.90
2023-04-03T15:01:04.030Z,1.85
2023-04-03T15:02:25.472Z,1.88
2023-04-03T15:03:28.205Z,2.63
2023-04-03T15:04:30.669Z,2.13
2023-04-03T15:05:32.880Z,2.00
2023-04-03T15:06:35.676Z,2.05
2023-04-03T15:07:40.376Z,2.22
2023-04-03T15:08:43.615Z,2.45
2023-04-03T15:09:46.353Z,2.00
2023-04-03T15:10:49.496Z,2.20
2023-04-03T15:11:52.979Z,1.98
2023-04-03T15:12:56.584Z,2.20
2023-04-03T15:13:58.723Z,2.35
2023-04-03T15:15:03.634Z,2.53
2023-04-03T15:16:15.408Z,1.98
2023-04-03T15:17:21.506Z,2.28
2023-04-03T15:18:28.977Z,2.20
2023-04-03T15:19:37.577Z,2.15
2023-04-03T15:20:39.962Z,2.20
2023-04-03T15:21:42.716Z,2.25
2023-04-03T15:22:45.209Z,2.10
2023-04-03T15:23:47.322Z,2.60
2023-04-03T15:24:49.441Z,2.40
2023-04-03T15:25:51.860Z,2.47
2023-04-03T15:26:54.320Z,2.05
2023-04-03T15:27:58.209Z,2.63
2023-04-03T15:29:00.583Z,3.33
2023-04-03T15:30:03.150Z,2.88
2023-04-03T15:31:07.298Z,2.63
2023-04-03T15:32:10.247Z,2.60
2023-04-03T15:33:12.698Z,2.83
2023-04-03T15:34:14.995Z,3.42
2023-04-03T15:35:17.775Z,2.90
2023-04-03T15:36:33.443Z,3.45
2023-04-03T15:37:37.380Z,3.97
2023-04-03T15:38:39.759Z,3.72
2023-04-03T15:39:41.937Z,4.18
2023-04-03T15:40:44.941Z,3.58
2023-04-03T15:41:47.509Z,3.30
2023-04-03T15:42:50.308Z,4.32
2023-04-03T15:43:53.973Z,3.58
2023-04-03T15:44:56.197Z,3.95
2023-04-03T15:46:00.704Z,3.65
2023-04-03T15:47:06.335Z,3.72
2023-04-03T15:48:09.769Z,4.28
2023-04-03T15:49:12.354Z,3.65
2023-04-03T15:50:14.510Z,3.80
2023-04-03T15:51:16.837Z,4.30
2023-04-03T15:52:18.988Z,4.53
2023-04-03T15:53:21.592Z,4.72
2023-04-03T15:54:25.053Z,4.82
2023-04-03T15:55:28.665Z,4.28
2023-04-03T15:56:30.923Z,4.00
2023-04-03T15:58:40.464Z,3.60
2023-04-03T15:59:42.648Z,2.67
2023-04-03T16:00:44.939Z,3.20
2023-04-03T16:01:47.815Z,2.20
2023-04-03T16:02:53.877Z,2.60
2023-04-03T16:03:57.363Z,2.58
